sensor_id;sensor_type;location;lat;lon;timestamp;temperature;humidity
54796;DHT22;40693;43.884;20.340;2022-10-04T00:04:18;384.10;2329.60
54796;DHT22;40693;43.884;20.340;2022-10-04T00:06:53;384.10;2329.60
54796;DHT22;40693;43.884;20.340;2022-10-04T00:09:23;384.10;2329.60
54796;DHT22;40693;43.884;20.340;2022-10-04T00:11:54;384.20;2329.60
54796;DHT22;40693;43.884;20.340;2022-10-04T00:14:35;384.20;2329.60
54796;DHT22;40693;43.884;20.340;2022-10-04T00:17:10;384.30;2329.60
54796;DHT22;40693;43.884;20.340;2022-10-04T00:19:41;384.30;2329.60
54796;DHT22;40693;43.884;20.340;2022-10-04T00:22:11;384.30;2329.60
54796;DHT22;40693;43.884;20.340;2022-10-04T00:24:38;384.30;2329.60
54796;DHT22;40693;43.884;20.340;2022-10-04T00:27:27;384.30;2329.60
54796;DHT22;40693;43.884;20.340;2022-10-04T00:37:59;384.30;2329.60
54796;DHT22;40693;43.884;20.340;2022-10-04T00:40:31;384.30;2329.60
54796;DHT22;40693;43.884;20.340;2022-10-04T00:43:01;384.30;2329.60
54796;DHT22;40693;43.884;20.340;2022-10-04T00:48:32;384.40;2329.60
54796;DHT22;40693;43.884;20.340;2022-10-04T01:01:25;384.40;2329.60
54796;DHT22;40693;43.884;20.340;2022-10-04T01:03:53;384.40;2329.60
54796;DHT22;40693;43.884;20.340;2022-10-04T01:06:22;384.40;2329.60
54796;DHT22;40693;43.884;20.340;2022-10-04T01:08:51;384.50;2329.60
54796;DHT22;40693;43.884;20.340;2022-10-04T01:13:52;384.50;2329.60
54796;DHT22;40693;43.884;20.340;2022-10-04T01:16:27;384.50;2329.60
54796;DHT22;40693;43.884;20.340;2022-10-04T01:18:54;384.50;2329.60
54796;DHT22;40693;43.884;20.340;2022-10-04T01:21:30;384.40;2329.60
54796;DHT22;40693;43.884;20.340;2022-10-04T01:31:34;384.20;2329.60
54796;DHT22;40693;43.884;20.340;2022-10-04T01:34:00;384.20;2329.60
54796;DHT22;40693;43.884;20.340;2022-10-04T01:36:27;384.20;2329.60
54796;DHT22;40693;43.884;20.340;2022-10-04T01:38:54;384.20;2329.60
54796;DHT22;40693;43.884;20.340;2022-10-04T01:41:49;384.20;2329.60
54796;DHT22;40693;43.884;20.340;2022-10-04T01:44:23;384.10;2329.60
54796;DHT22;40693;43.884;20.340;2022-10-04T01:46:54;384.10;2329.60
54796;DHT22;40693;43.884;20.340;2022-10-04T01:49:24;384.10;2329.60
54796;DHT22;40693;43.884;20.340;2022-10-04T01:52:20;384.10;2329.60
54796;DHT22;40693;43.884;20.340;2022-10-04T01:55:04;384.10;2329.60
54796;DHT22;40693;43.884;20.340;2022-10-04T01:57:36;384.10;2329.60
54796;DHT22;40693;43.884;20.340;2022-10-04T02:00:08;384.10;2329.60
54796;DHT22;40693;43.884;20.340;2022-10-04T02:05:02;384.10;2329.60
54796;DHT22;40693;43.884;20.340;2022-10-04T02:07:31;384.10;2329.60
54796;DHT22;40693;43.884;20.340;2022-10-04T02:10:02;384.10;2329.60
54796;DHT22;40693;43.884;20.340;2022-10-04T02:12:30;384.10;2329.60
54796;DHT22;40693;43.884;20.340;2022-10-04T02:14:59;384.10;2329.60
54796;DHT22;40693;43.884;20.340;2022-10-04T02:17:31;384.10;2329.60
54796;DHT22;40693;43.884;20.340;2022-10-04T02:19:58;384.10;2329.60
54796;DHT22;40693;43.884;20.340;2022-10-04T02:22:26;384.10;2329.60
54796;DHT22;40693;43.884;20.340;2022-10-04T02:24:54;384.00;2329.60
54796;DHT22;40693;43.884;20.340;2022-10-04T02:27:26;359.30;2329.60
54796;DHT22;40693;43.884;20.340;2022-10-04T02:30:00;359.30;2329.60
54796;DHT22;40693;43.884;20.340;2022-10-04T02:32:28;384.00;2329.60
54796;DHT22;40693;43.884;20.340;2022-10-04T02:35:12;384.00;2329.60
54796;DHT22;40693;43.884;20.340;2022-10-04T02:37:38;359.30;2329.60
54796;DHT22;40693;43.884;20.340;2022-10-04T02:40:11;384.00;2329.60
54796;DHT22;40693;43.884;20.340;2022-10-04T02:48:05;359.30;2329.60
54796;DHT22;40693;43.884;20.340;2022-10-04T02:50:40;384.00;2329.60
54796;DHT22;40693;43.884;20.340;2022-10-04T02:55:48;359.20;2329.60
54796;DHT22;40693;43.884;20.340;2022-10-04T02:58:17;359.20;2329.60
54796;DHT22;40693;43.884;20.340;2022-10-04T03:00:54;359.20;2329.60
54796;DHT22;40693;43.884;20.340;2022-10-04T03:03:25;359.30;2329.60
54796;DHT22;40693;43.884;20.340;2022-10-04T03:06:05;359.30;2329.60
54796;DHT22;40693;43.884;20.340;2022-10-04T03:08:48;359.30;2329.60
54796;DHT22;40693;43.884;20.340;2022-10-04T03:11:15;359.30;2329.60
54796;DHT22;40693;43.884;20.340;2022-10-04T03:13:45;359.20;2329.60
54796;DHT22;40693;43.884;20.340;2022-10-04T03:16:12;359.20;2329.60
54796;DHT22;40693;43.884;20.340;2022-10-04T03:18:38;359.20;2329.60
54796;DHT22;40693;43.884;20.340;2022-10-04T03:21:07;359.10;2329.60
54796;DHT22;40693;43.884;20.340;2022-10-04T03:23:34;359.10;2329.60
54796;DHT22;40693;43.884;20.340;2022-10-04T03:28:32;359.10;2329.60
54796;DHT22;40693;43.884;20.340;2022-10-04T03:30:57;359.10;2329.60
54796;DHT22;40693;43.884;20.340;2022-10-04T03:33:25;359.10;2329.60
54796;DHT22;40693;43.884;20.340;2022-10-04T03:35:55;359.10;2329.60
54796;DHT22;40693;43.884;20.340;2022-10-04T03:38:22;359.10;2329.60
54796;DHT22;40693;43.884;20.340;2022-10-04T03:40:55;359.10;2329.60
54796;DHT22;40693;43.884;20.340;2022-10-04T03:43:27;359.10;2329.60
54796;DHT22;40693;43.884;20.340;2022-10-04T03:45:56;359.10;2329.60
54796;DHT22;40693;43.884;20.340;2022-10-04T03:48:47;359.10;2329.60
54796;DHT22;40693;43.884;20.340;2022-10-04T03:51:26;359.10;2329.60
54796;DHT22;40693;43.884;20.340;2022-10-04T03:53:54;359.00;2329.60
54796;DHT22;40693;43.884;20.340;2022-10-04T03:56:25;359.00;2329.60
54796;DHT22;40693;43.884;20.340;2022-10-04T03:58:52;359.00;2329.60
54796;DHT22;40693;43.884;20.340;2022-10-04T04:04:22;359.00;2329.60
54796;DHT22;40693;43.884;20.340;2022-10-04T04:07:06;359.00;2329.60
54796;DHT22;40693;43.884;20.340;2022-10-04T04:09:51;359.00;2329.60
54796;DHT22;40693;43.884;20.340;2022-10-04T04:14:59;359.10;2329.60
54796;DHT22;40693;43.884;20.340;2022-10-04T04:19:58;359.00;2329.60
54796;DHT22;40693;43.884;20.340;2022-10-04T04:22:24;359.00;2329.60
54796;DHT22;40693;43.884;20.340;2022-10-04T04:25:00;359.00;2329.60
54796;DHT22;40693;43.884;20.340;2022-10-04T04:27:28;359.00;2329.60
54796;DHT22;40693;43.884;20.340;2022-10-04T04:29:58;359.00;2329.60
54796;DHT22;40693;43.884;20.340;2022-10-04T04:32:30;359.00;2329.60
54796;DHT22;40693;43.884;20.340;2022-10-04T04:35:02;358.90;2329.60
54796;DHT22;40693;43.884;20.340;2022-10-04T04:37:35;358.90;2329.60
54796;DHT22;40693;43.884;20.340;2022-10-04T04:40:19;358.90;2329.60
54796;DHT22;40693;43.884;20.340;2022-10-04T04:42:46;358.90;2329.60
54796;DHT22;40693;43.884;20.340;2022-10-04T04:45:19;358.90;2329.60
54796;DHT22;40693;43.884;20.340;2022-10-04T04:47:49;358.90;2329.60
54796;DHT22;40693;43.884;20.340;2022-10-04T04:50:19;358.80;2329.60
54796;DHT22;40693;43.884;20.340;2022-10-04T04:53:32;358.80;2329.60
54796;DHT22;40693;43.884;20.340;2022-10-04T04:58:04;358.70;2329.60
54796;DHT22;40693;43.884;20.340;2022-10-04T05:00:37;358.70;2329.60
54796;DHT22;40693;43.884;20.340;2022-10-04T05:03:06;358.70;2329.60
54796;DHT22;40693;43.884;20.340;2022-10-04T05:05:34;358.70;2329.60
54796;DHT22;40693;43.884;20.340;2022-10-04T05:08:07;358.70;2329.60
54796;DHT22;40693;43.884;20.340;2022-10-04T05:10:35;358.70;2329.60
54796;DHT22;40693;43.884;20.340;2022-10-04T05:13:02;358.70;2329.60
54796;DHT22;40693;43.884;20.340;2022-10-04T05:15:34;358.70;2329.60
54796;DHT22;40693;43.884;20.340;2022-10-04T05:18:01;358.70;2329.60
54796;DHT22;40693;43.884;20.340;2022-10-04T05:20:41;358.80;2329.60
54796;DHT22;40693;43.884;20.340;2022-10-04T05:23:11;358.70;2329.60
54796;DHT22;40693;43.884;20.340;2022-10-04T05:25:38;358.80;2329.60
54796;DHT22;40693;43.884;20.340;2022-10-04T05:28:04;358.80;2329.60
54796;DHT22;40693;43.884;20.340;2022-10-04T05:33:51;358.70;2329.60
54796;DHT22;40693;43.884;20.340;2022-10-04T05:44:00;358.70;2329.60
54796;DHT22;40693;43.884;20.340;2022-10-04T05:46:33;358.80;2329.60
54796;DHT22;40693;43.884;20.340;2022-10-04T05:49:12;358.80;2329.60
54796;DHT22;40693;43.884;20.340;2022-10-04T05:51:56;358.80;2329.60
54796;DHT22;40693;43.884;20.340;2022-10-04T05:54:27;358.80;2329.60
54796;DHT22;40693;43.884;20.340;2022-10-04T05:57:08;358.80;2329.60
54796;DHT22;40693;43.884;20.340;2022-10-04T06:05:45;358.90;2329.60
54796;DHT22;40693;43.884;20.340;2022-10-04T06:08:38;358.80;2329.60
54796;DHT22;40693;43.884;20.340;2022-10-04T06:11:44;358.80;2329.60
54796;DHT22;40693;43.884;20.340;2022-10-04T06:22:56;358.90;2329.60
54796;DHT22;40693;43.884;20.340;2022-10-04T06:25:35;358.90;2329.60
54796;DHT22;40693;43.884;20.340;2022-10-04T07:02:57;384.30;2329.60
54796;DHT22;40693;43.884;20.340;2022-10-04T07:05:43;384.40;2329.60
54796;DHT22;40693;43.884;20.340;2022-10-04T07:08:32;384.50;2329.60
54796;DHT22;40693;43.884;20.340;2022-10-04T07:13:50;384.80;2329.60
54796;DHT22;40693;43.884;20.340;2022-10-04T07:27:25;409.70;2355.20
54796;DHT22;40693;43.884;20.340;2022-10-04T07:30:03;409.70;2355.20
54796;DHT22;40693;43.884;20.340;2022-10-04T07:32:35;409.70;2355.20
54796;DHT22;40693;43.884;20.340;2022-10-04T07:35:21;409.70;2355.20
54796;DHT22;40693;43.884;20.340;2022-10-04T07:40:40;409.70;2355.20
54796;DHT22;40693;43.884;20.340;2022-10-04T07:43:23;409.70;2355.20
54796;DHT22;40693;43.884;20.340;2022-10-04T07:45:59;409.70;2355.20
54796;DHT22;40693;43.884;20.340;2022-10-04T07:48:27;409.70;2355.20
54796;DHT22;40693;43.884;20.340;2022-10-04T07:53:41;384.90;2329.60
54796;DHT22;40693;43.884;20.340;2022-10-04T07:56:21;384.90;2329.60
54796;DHT22;40693;43.884;20.340;2022-10-04T07:58:51;384.90;2329.60
54796;DHT22;40693;43.884;20.340;2022-10-04T08:13:38;409.70;2355.20
54796;DHT22;40693;43.884;20.340;2022-10-04T08:15:42;409.80;2355.20
54796;DHT22;40693;43.884;20.340;2022-10-04T08:34:56;435.20;2355.20
54796;DHT22;40693;43.884;20.340;2022-10-04T08:59:32;435.80;2355.20
54796;DHT22;40693;43.884;20.340;2022-10-04T09:08:16;435.80;2355.20
54796;DHT22;40693;43.884;20.340;2022-10-04T09:16:56;460.80;2380.80
54796;DHT22;40693;43.884;20.340;2022-10-04T09:33:45;461.60;2201.60
54796;DHT22;40693;43.884;20.340;2022-10-04T09:44:56;461.70;2176.00
54796;DHT22;40693;43.884;20.340;2022-10-04T09:47:40;461.70;2150.40
54796;DHT22;40693;43.884;20.340;2022-10-04T10:00:46;461.30;2150.40
54796;DHT22;40693;43.884;20.340;2022-10-04T10:12:34;461.40;2176.00
54796;DHT22;40693;43.884;20.340;2022-10-04T10:23:58;461.20;2201.60
54796;DHT22;40693;43.884;20.340;2022-10-04T10:26:53;461.00;2201.60
54796;DHT22;40693;43.884;20.340;2022-10-04T10:56:51;436.00;2227.20
54796;DHT22;40693;43.884;20.340;2022-10-04T10:59:51;436.00;2227.20
54796;DHT22;40693;43.884;20.340;2022-10-04T11:30:26;435.90;2278.40
54796;DHT22;40693;43.884;20.340;2022-10-04T11:39:05;436.00;2252.80
54796;DHT22;40693;43.884;20.340;2022-10-04T11:41:52;436.00;2227.20
54796;DHT22;40693;43.884;20.340;2022-10-04T12:12:22;435.80;2278.40
54796;DHT22;40693;43.884;20.340;2022-10-04T12:15:17;435.80;2278.40
54796;DHT22;40693;43.884;20.340;2022-10-04T12:31:40;435.80;2304.00
54796;DHT22;40693;43.884;20.340;2022-10-04T12:40:45;435.90;2304.00
54796;DHT22;40693;43.884;20.340;2022-10-04T12:42:57;435.90;2304.00
54796;DHT22;40693;43.884;20.340;2022-10-04T12:57:03;435.80;2329.60
54796;DHT22;40693;43.884;20.340;2022-10-04T13:10:57;435.60;2355.20
54796;DHT22;40693;43.884;20.340;2022-10-04T13:24:52;435.30;2355.20
54796;DHT22;40693;43.884;20.340;2022-10-04T13:30:03;435.30;2355.20
54796;DHT22;40693;43.884;20.340;2022-10-04T13:32:50;435.20;2355.20
54796;DHT22;40693;43.884;20.340;2022-10-04T13:35:24;435.30;2355.20
54796;DHT22;40693;43.884;20.340;2022-10-04T13:41:40;435.40;2355.20
54796;DHT22;40693;43.884;20.340;2022-10-04T13:58:07;435.30;2355.20
54796;DHT22;40693;43.884;20.340;2022-10-04T14:00:54;435.40;2355.20
54796;DHT22;40693;43.884;20.340;2022-10-04T14:12:16;435.40;2355.20
54796;DHT22;40693;43.884;20.340;2022-10-04T14:15:19;435.40;2355.20
54796;DHT22;40693;43.884;20.340;2022-10-04T14:29:23;435.40;2355.20
54796;DHT22;40693;43.884;20.340;2022-10-04T14:53:57;435.40;2355.20
54796;DHT22;40693;43.884;20.340;2022-10-04T14:59:18;435.40;2355.20
54796;DHT22;40693;43.884;20.340;2022-10-04T15:15:37;435.30;2355.20
54796;DHT22;40693;43.884;20.340;2022-10-04T15:23:42;410.50;2355.20
54796;DHT22;40693;43.884;20.340;2022-10-04T15:31:49;435.20;2355.20
54796;DHT22;40693;43.884;20.340;2022-10-04T15:36:59;435.30;2355.20
54796;DHT22;40693;43.884;20.340;2022-10-04T15:42:20;435.40;2355.20
54796;DHT22;40693;43.884;20.340;2022-10-04T15:45:33;435.50;2355.20
54796;DHT22;40693;43.884;20.340;2022-10-04T15:57:51;435.30;2355.20
54796;DHT22;40693;43.884;20.340;2022-10-04T16:00:24;435.30;2355.20
54796;DHT22;40693;43.884;20.340;2022-10-04T16:03:05;435.30;2355.20
54796;DHT22;40693;43.884;20.340;2022-10-04T16:05:45;435.30;2355.20
54796;DHT22;40693;43.884;20.340;2022-10-04T16:17:17;410.40;2355.20
54796;DHT22;40693;43.884;20.340;2022-10-04T16:20:17;410.50;2355.20
54796;DHT22;40693;43.884;20.340;2022-10-04T16:29:00;410.50;2355.20
54796;DHT22;40693;43.884;20.340;2022-10-04T16:32:00;410.50;2355.20
54796;DHT22;40693;43.884;20.340;2022-10-04T16:34:37;410.50;2355.20
54796;DHT22;40693;43.884;20.340;2022-10-04T16:53:51;410.50;2355.20
54796;DHT22;40693;43.884;20.340;2022-10-04T16:56:23;410.50;2355.20
54796;DHT22;40693;43.884;20.340;2022-10-04T17:04:16;410.50;2355.20
54796;DHT22;40693;43.884;20.340;2022-10-04T17:09:45;410.40;2355.20
54796;DHT22;40693;43.884;20.340;2022-10-04T17:28:56;410.00;2355.20
54796;DHT22;40693;43.884;20.340;2022-10-04T17:40:53;410.10;2355.20
54796;DHT22;40693;43.884;20.340;2022-10-04T17:43:41;410.10;2355.20
54796;DHT22;40693;43.884;20.340;2022-10-04T17:49:10;410.00;2355.20
54796;DHT22;40693;43.884;20.340;2022-10-04T17:51:56;410.00;2355.20
54796;DHT22;40693;43.884;20.340;2022-10-04T17:54:51;410.00;2355.20
54796;DHT22;40693;43.884;20.340;2022-10-04T17:57:53;410.00;2355.20
54796;DHT22;40693;43.884;20.340;2022-10-04T18:00:22;409.80;2355.20
54796;DHT22;40693;43.884;20.340;2022-10-04T18:03:15;409.80;2355.20
54796;DHT22;40693;43.884;20.340;2022-10-04T18:13:49;384.90;2329.60
54796;DHT22;40693;43.884;20.340;2022-10-04T18:22:24;384.90;2329.60
54796;DHT22;40693;43.884;20.340;2022-10-04T18:25:21;384.80;2329.60
54796;DHT22;40693;43.884;20.340;2022-10-04T18:30:49;384.90;2329.60
54796;DHT22;40693;43.884;20.340;2022-10-04T18:36:21;384.80;2329.60
54796;DHT22;40693;43.884;20.340;2022-10-04T18:41:41;409.60;2355.20
54796;DHT22;40693;43.884;20.340;2022-10-04T18:44:23;409.60;2355.20
54796;DHT22;40693;43.884;20.340;2022-10-04T18:46:56;409.70;2355.20
54796;DHT22;40693;43.884;20.340;2022-10-04T18:49:26;409.70;2355.20
54796;DHT22;40693;43.884;20.340;2022-10-04T18:57:44;409.80;2355.20
54796;DHT22;40693;43.884;20.340;2022-10-04T19:00:39;409.90;2355.20
54796;DHT22;40693;43.884;20.340;2022-10-04T19:06:29;409.90;2355.20
54796;DHT22;40693;43.884;20.340;2022-10-04T19:11:53;409.90;2355.20
54796;DHT22;40693;43.884;20.340;2022-10-04T19:17:37;409.90;2355.20
54796;DHT22;40693;43.884;20.340;2022-10-04T19:20:35;409.80;2355.20
54796;DHT22;40693;43.884;20.340;2022-10-04T19:23:24;409.80;2355.20
54796;DHT22;40693;43.884;20.340;2022-10-04T19:25:59;409.80;2355.20
54796;DHT22;40693;43.884;20.340;2022-10-04T19:28:31;409.80;2355.20
54796;DHT22;40693;43.884;20.340;2022-10-04T19:34:27;409.70;2355.20
54796;DHT22;40693;43.884;20.340;2022-10-04T19:36:59;409.60;2355.20
54796;DHT22;40693;43.884;20.340;2022-10-04T19:39:50;384.90;2329.60
54796;DHT22;40693;43.884;20.340;2022-10-04T19:45:13;384.80;2329.60
54796;DHT22;40693;43.884;20.340;2022-10-04T19:50:18;384.70;2329.60
54796;DHT22;40693;43.884;20.340;2022-10-04T19:53:20;384.70;2329.60
54796;DHT22;40693;43.884;20.340;2022-10-04T19:55:59;384.70;2329.60
54796;DHT22;40693;43.884;20.340;2022-10-04T20:01:14;384.60;2329.60
54796;DHT22;40693;43.884;20.340;2022-10-04T20:03:41;384.70;2329.60
54796;DHT22;40693;43.884;20.340;2022-10-04T20:06:08;384.80;2329.60
54796;DHT22;40693;43.884;20.340;2022-10-04T20:08:54;384.80;2329.60
54796;DHT22;40693;43.884;20.340;2022-10-04T20:11:44;384.70;2329.60
54796;DHT22;40693;43.884;20.340;2022-10-04T20:21:55;384.40;2329.60
54796;DHT22;40693;43.884;20.340;2022-10-04T20:27:03;384.30;2329.60
54796;DHT22;40693;43.884;20.340;2022-10-04T20:35:07;384.20;2329.60
54796;DHT22;40693;43.884;20.340;2022-10-04T20:45:46;384.20;2329.60
54796;DHT22;40693;43.884;20.340;2022-10-04T20:48:20;384.10;2329.60
54796;DHT22;40693;43.884;20.340;2022-10-04T20:50:47;384.10;2329.60
54796;DHT22;40693;43.884;20.340;2022-10-04T20:53:34;384.10;2329.60
54796;DHT22;40693;43.884;20.340;2022-10-04T20:58:55;384.10;2329.60
54796;DHT22;40693;43.884;20.340;2022-10-04T21:01:24;384.10;2329.60
54796;DHT22;40693;43.884;20.340;2022-10-04T21:04:24;384.10;2329.60
54796;DHT22;40693;43.884;20.340;2022-10-04T21:07:11;384.10;2329.60
54796;DHT22;40693;43.884;20.340;2022-10-04T21:09:39;384.10;2329.60
54796;DHT22;40693;43.884;20.340;2022-10-04T21:12:23;384.10;2329.60
54796;DHT22;40693;43.884;20.340;2022-10-04T21:17:37;384.30;2329.60
54796;DHT22;40693;43.884;20.340;2022-10-04T21:20:04;384.20;2329.60
54796;DHT22;40693;43.884;20.340;2022-10-04T21:22:32;384.20;2329.60
54796;DHT22;40693;43.884;20.340;2022-10-04T21:25:24;384.20;2329.60
54796;DHT22;40693;43.884;20.340;2022-10-04T21:27:49;384.20;2329.60
54796;DHT22;40693;43.884;20.340;2022-10-04T21:30:16;384.20;2329.60
54796;DHT22;40693;43.884;20.340;2022-10-04T21:32:44;384.20;2329.60
54796;DHT22;40693;43.884;20.340;2022-10-04T21:35:11;384.40;2329.60
54796;DHT22;40693;43.884;20.340;2022-10-04T21:37:37;384.10;2329.60
54796;DHT22;40693;43.884;20.340;2022-10-04T21:40:04;384.20;2329.60
54796;DHT22;40693;43.884;20.340;2022-10-04T21:42:32;384.20;2329.60
54796;DHT22;40693;43.884;20.340;2022-10-04T21:44:59;384.50;2329.60
54796;DHT22;40693;43.884;20.340;2022-10-04T21:47:24;384.10;2329.60
54796;DHT22;40693;43.884;20.340;2022-10-04T21:49:51;384.10;2329.60
54796;DHT22;40693;43.884;20.340;2022-10-04T21:52:17;384.10;2329.60
54796;DHT22;40693;43.884;20.340;2022-10-04T21:54:44;384.10;2329.60
54796;DHT22;40693;43.884;20.340;2022-10-04T21:57:10;384.10;2329.60
54796;DHT22;40693;43.884;20.340;2022-10-04T21:59:36;384.00;2329.60
54796;DHT22;40693;43.884;20.340;2022-10-04T22:02:02;384.10;2329.60
54796;DHT22;40693;43.884;20.340;2022-10-04T22:04:28;384.40;2329.60
54796;DHT22;40693;43.884;20.340;2022-10-04T22:06:54;384.10;2329.60
54796;DHT22;40693;43.884;20.340;2022-10-04T22:09:20;384.00;2329.60
54796;DHT22;40693;43.884;20.340;2022-10-04T22:11:45;384.00;2329.60
54796;DHT22;40693;43.884;20.340;2022-10-04T22:14:11;384.00;2329.60
54796;DHT22;40693;43.884;20.340;2022-10-04T22:16:37;384.10;2329.60
54796;DHT22;40693;43.884;20.340;2022-10-04T22:19:06;384.10;2329.60
54796;DHT22;40693;43.884;20.340;2022-10-04T22:21:32;384.10;2329.60
54796;DHT22;40693;43.884;20.340;2022-10-04T22:23:58;384.10;2329.60
54796;DHT22;40693;43.884;20.340;2022-10-04T22:26:25;384.10;2329.60
54796;DHT22;40693;43.884;20.340;2022-10-04T22:28:53;384.10;2329.60
54796;DHT22;40693;43.884;20.340;2022-10-04T22:31:27;384.10;2329.60
54796;DHT22;40693;43.884;20.340;2022-10-04T22:33:54;384.00;2329.60
54796;DHT22;40693;43.884;20.340;2022-10-04T22:41:51;384.00;2329.60
54796;DHT22;40693;43.884;20.340;2022-10-04T22:44:18;384.00;2329.60
54796;DHT22;40693;43.884;20.340;2022-10-04T22:46:48;359.30;2329.60
54796;DHT22;40693;43.884;20.340;2022-10-04T22:49:20;359.30;2329.60
54796;DHT22;40693;43.884;20.340;2022-10-04T22:51:48;359.30;2329.60
54796;DHT22;40693;43.884;20.340;2022-10-04T22:54:17;359.30;2329.60
54796;DHT22;40693;43.884;20.340;2022-10-04T22:56:44;359.20;2329.60
54796;DHT22;40693;43.884;20.340;2022-10-04T22:59:14;359.20;2329.60
54796;DHT22;40693;43.884;20.340;2022-10-04T23:01:41;359.20;2329.60
54796;DHT22;40693;43.884;20.340;2022-10-04T23:04:22;359.10;2329.60
54796;DHT22;40693;43.884;20.340;2022-10-04T23:06:49;359.10;2329.60
54796;DHT22;40693;43.884;20.340;2022-10-04T23:09:15;359.10;2329.60
54796;DHT22;40693;43.884;20.340;2022-10-04T23:11:46;359.00;2329.60
54796;DHT22;40693;43.884;20.340;2022-10-04T23:14:12;359.00;2329.60
54796;DHT22;40693;43.884;20.340;2022-10-04T23:16:38;359.00;2329.60
54796;DHT22;40693;43.884;20.340;2022-10-04T23:19:12;358.90;2329.60
54796;DHT22;40693;43.884;20.340;2022-10-04T23:21:43;358.90;2329.60
54796;DHT22;40693;43.884;20.340;2022-10-04T23:24:16;358.70;2329.60
54796;DHT22;40693;43.884;20.340;2022-10-04T23:26:45;358.70;2329.60
54796;DHT22;40693;43.884;20.340;2022-10-04T23:29:22;358.60;2329.60
54796;DHT22;40693;43.884;20.340;2022-10-04T23:31:51;358.60;2329.60
54796;DHT22;40693;43.884;20.340;2022-10-04T23:34:34;358.60;2329.60
54796;DHT22;40693;43.884;20.340;2022-10-04T23:37:01;358.50;2329.60
54796;DHT22;40693;43.884;20.340;2022-10-04T23:39:32;358.50;2329.60
54796;DHT22;40693;43.884;20.340;2022-10-04T23:42:01;358.50;2329.60
54796;DHT22;40693;43.884;20.340;2022-10-04T23:44:35;358.50;2329.60
54796;DHT22;40693;43.884;20.340;2022-10-04T23:47:02;358.50;2329.60
54796;DHT22;40693;43.884;20.340;2022-10-04T23:49:33;358.40;2329.60
54796;DHT22;40693;43.884;20.340;2022-10-04T23:52:01;333.70;2329.60
54796;DHT22;40693;43.884;20.340;2022-10-04T23:54:28;333.70;2329.60
54796;DHT22;40693;43.884;20.340;2022-10-04T23:56:54;358.40;2329.60
54796;DHT22;40693;43.884;20.340;2022-10-04T23:59:22;333.70;2329.60
